Time;durP1;ratioP1;P1;durP2;ratioP2;P2;SDS_P1;SDS_P2;PMS_P1;PMS_P2;Temp;Humidity;BMP_temperature;BMP_pressure;BME280_temperature;BME280_humidity;BME280_pressure;Samples;Min_cycle;Max_cycle;Signal;HPM_P1;HPM_P2
2023/05/26 00:00:05;;;;;;;24.30;3.80;;;11.80;99.90;;;;;;4903417;29;20048;-72
2023/05/26 00:02:31;;;;;;;19.27;3.55;;;11.80;99.90;;;;;;4903279;29;20040;-72
2023/05/26 00:05:01;;;;;;;26.65;4.25;;;11.80;99.90;;;;;;4903128;29;20048;-72
2023/05/26 00:07:27;;;;;;;21.80;4.20;;;11.80;99.90;;;;;;4902940;29;20080;-72
2023/05/26 00:09:52;;;;;;;30.33;4.00;;;11.80;99.90;;;;;;4903254;29;20048;-72
2023/05/26 00:12:19;;;;;;;27.00;4.03;;;11.70;99.90;;;;;;4902951;29;20060;-72
2023/05/26 00:14:46;;;;;;;24.35;4.30;;;11.60;99.90;;;;;;4903116;29;20053;-72
2023/05/26 00:17:12;;;;;;;25.90;3.95;;;11.70;99.90;;;;;;4903015;29;20044;-72
2023/05/26 00:19:38;;;;;;;29.05;4.05;;;11.70;99.90;;;;;;4903269;29;20334;-71
2023/05/26 00:22:05;;;;;;;23.00;3.75;;;11.60;99.90;;;;;;4903038;29;20051;-72
2023/05/26 00:24:30;;;;;;;23.85;3.83;;;11.70;99.90;;;;;;4903284;29;20040;-71
2023/05/26 00:26:56;;;;;;;28.67;4.45;;;11.50;99.90;;;;;;4902936;29;20346;-71
2023/05/26 00:29:22;;;;;;;28.58;3.85;;;11.50;99.90;;;;;;4903091;29;20072;-71
2023/05/26 00:31:47;;;;;;;24.85;3.53;;;11.50;99.90;;;;;;4902686;29;20399;-72
2023/05/26 00:34:13;;;;;;;24.80;4.45;;;11.50;99.90;;;;;;4902982;29;20466;-71
2023/05/26 00:36:39;;;;;;;24.65;3.70;;;11.50;99.90;;;;;;4902627;29;20040;-71
2023/05/26 00:39:04;;;;;;;27.05;3.85;;;11.50;99.90;;;;;;4902420;29;20048;-71
2023/05/26 00:41:30;;;;;;;33.13;4.00;;;11.40;99.90;;;;;;4902922;29;20040;-71
2023/05/26 00:43:56;;;;;;;18.55;3.88;;;11.40;99.90;;;;;;4902545;29;20041;-71
2023/05/26 00:46:22;;;;;;;26.60;4.80;;;11.30;99.90;;;;;;4902750;29;20044;-72
2023/05/26 00:48:47;;;;;;;26.27;4.20;;;11.40;99.90;;;;;;4902424;29;20384;-71
2023/05/26 00:51:13;;;;;;;25.42;3.53;;;11.40;99.90;;;;;;4902581;29;20052;-71
2023/05/26 00:53:43;;;;;;;39.28;4.95;;;11.30;99.90;;;;;;4902335;29;20118;-71
2023/05/26 00:56:11;;;;;;;24.55;4.10;;;11.30;99.90;;;;;;4902411;29;20041;-71
2023/05/26 00:58:38;;;;;;;23.75;4.22;;;11.30;99.90;;;;;;4902363;29;20048;-71
2023/05/26 01:01:03;;;;;;;28.35;4.80;;;11.20;99.90;;;;;;4901245;29;20076;-72
2023/05/26 01:03:30;;;;;;;28.33;4.50;;;11.10;99.90;;;;;;4902503;29;20429;-71
2023/05/26 01:05:55;;;;;;;25.38;5.13;;;11.00;99.90;;;;;;4902334;29;20047;-71
2023/05/26 01:08:21;;;;;;;25.02;4.35;;;11.00;99.90;;;;;;4901985;29;20370;-71
2023/05/26 01:10:47;;;;;;;22.35;4.07;;;11.00;99.90;;;;;;4902124;29;20080;-71
2023/05/26 01:13:20;;;;;;;23.10;5.40;;;11.00;99.90;;;;;;4901855;29;20065;-71
2023/05/26 01:15:51;;;;;;;22.08;4.07;;;11.00;99.90;;;;;;4902064;29;20112;-71
2023/05/26 01:18:31;;;;;;;26.08;4.30;;;11.00;99.90;;;;;;4901853;29;20040;-71
2023/05/26 01:21:05;;;;;;;23.58;4.43;;;10.90;99.90;;;;;;4902082;29;20072;-71
2023/05/26 01:24:11;;;;;;;26.13;4.50;;;10.90;99.90;;;;;;4902042;29;20071;-71
2023/05/26 01:26:55;;;;;;;25.10;3.80;;;11.00;99.90;;;;;;4901239;29;20378;-71
2023/05/26 01:29:24;;;;;;;25.23;4.32;;;10.90;99.90;;;;;;4901847;29;20457;-71
2023/05/26 01:31:50;;;;;;;22.13;4.38;;;10.90;99.90;;;;;;4901732;29;20057;-71
2023/05/26 01:34:16;;;;;;;26.13;3.95;;;10.90;99.90;;;;;;4901739;29;20104;-71
2023/05/26 01:36:41;;;;;;;30.63;4.07;;;10.90;99.90;;;;;;4901550;29;20454;-71
2023/05/26 01:39:08;;;;;;;27.63;3.70;;;10.90;99.90;;;;;;4900452;29;20040;-72
2023/05/26 01:41:46;;;;;;;24.38;3.75;;;10.90;99.90;;;;;;4901776;29;20095;-72
2023/05/26 01:44:12;;;;;;;30.77;5.40;;;10.90;99.90;;;;;;4901655;29;20036;-71
2023/05/26 01:46:47;;;;;;;24.50;4.07;;;10.80;99.90;;;;;;4900935;29;20055;-71
2023/05/26 01:49:15;;;;;;;27.65;4.10;;;10.70;99.90;;;;;;4900762;29;20067;-71
2023/05/26 01:51:44;;;;;;;21.73;3.95;;;10.70;99.90;;;;;;4901437;29;20452;-71
2023/05/26 01:54:11;;;;;;;19.13;3.50;;;10.80;99.90;;;;;;4901517;29;20048;-71
2023/05/26 01:56:39;;;;;;;19.52;3.53;;;10.90;99.90;;;;;;4900280;29;20040;-72
2023/05/26 01:59:06;;;;;;;24.35;3.55;;;10.90;99.90;;;;;;4901420;29;20049;-72
2023/05/26 02:01:33;;;;;;;26.83;4.00;;;10.90;99.90;;;;;;4901395;29;20068;-72
2023/05/26 02:03:59;;;;;;;24.40;4.30;;;11.00;99.90;;;;;;4901558;29;20051;-71
2023/05/26 02:06:26;;;;;;;32.35;5.38;;;11.00;99.90;;;;;;4901443;29;20120;-71
2023/05/26 02:08:51;;;;;;;22.88;3.15;;;11.00;99.90;;;;;;4901025;29;20044;-71
2023/05/26 02:11:17;;;;;;;30.63;4.00;;;10.90;99.90;;;;;;4901034;29;20055;-70
2023/05/26 02:13:45;;;;;;;24.92;4.35;;;10.80;99.90;;;;;;4901481;29;20049;-71
2023/05/26 02:16:13;;;;;;;22.58;3.55;;;10.80;99.90;;;;;;4900253;29;20354;-72
2023/05/26 02:18:40;;;;;;;27.13;4.15;;;10.80;99.90;;;;;;4901084;29;20051;-71
2023/05/26 02:21:05;;;;;;;25.65;4.55;;;10.90;99.90;;;;;;4901140;29;20044;-72
2023/05/26 02:23:31;;;;;;;26.27;3.70;;;10.90;99.90;;;;;;4901221;29;20040;-71
2023/05/26 02:25:57;;;;;;;20.08;3.63;;;10.80;99.90;;;;;;4901215;29;20041;-71
2023/05/26 02:28:22;;;;;;;21.52;3.70;;;10.70;99.90;;;;;;4901039;29;20041;-71
2023/05/26 02:30:48;;;;;;;23.45;3.92;;;10.60;99.90;;;;;;4901179;29;20048;-72
2023/05/26 02:33:14;;;;;;;23.05;3.45;;;10.60;99.90;;;;;;4901137;29;20131;-71
2023/05/26 02:35:39;;;;;;;25.58;3.78;;;10.60;99.90;;;;;;4901187;29;20044;-72
2023/05/26 02:38:05;;;;;;;20.48;3.47;;;10.60;99.90;;;;;;4900865;29;20036;-71
2023/05/26 02:40:31;;;;;;;28.13;4.47;;;10.60;99.90;;;;;;4901062;29;20127;-71
2023/05/26 02:42:56;;;;;;;22.00;3.53;;;10.50;99.90;;;;;;4900155;29;20051;-71
2023/05/26 02:45:22;;;;;;;24.58;4.35;;;10.50;99.90;;;;;;4900886;29;20120;-71
2023/05/26 02:47:48;;;;;;;19.45;3.50;;;10.60;99.90;;;;;;4901218;29;20079;-71
2023/05/26 02:50:13;;;;;;;33.25;4.50;;;10.60;99.90;;;;;;4901167;29;20049;-71
2023/05/26 02:52:39;;;;;;;19.05;3.45;;;10.50;99.90;;;;;;4901109;29;20179;-71
2023/05/26 02:55:08;;;;;;;21.95;3.95;;;10.50;99.90;;;;;;4900071;29;20052;-71
2023/05/26 02:57:33;;;;;;;28.30;3.92;;;10.50;99.90;;;;;;4901084;29;20319;-71
2023/05/26 02:59:59;;;;;;;26.40;3.75;;;10.40;99.90;;;;;;4902763;29;20044;-72
2023/05/26 03:02:25;;;;;;;28.60;4.30;;;10.40;99.90;;;;;;4904635;29;20041;-72
2023/05/26 03:04:52;;;;;;;21.15;3.63;;;10.40;99.90;;;;;;4904484;29;20045;-71
2023/05/26 03:07:17;;;;;;;24.48;3.85;;;10.40;99.90;;;;;;4904275;29;20048;-71
2023/05/26 03:09:43;;;;;;;22.40;3.75;;;10.40;99.90;;;;;;4904224;29;20052;-71
2023/05/26 03:12:12;;;;;;;19.33;3.63;;;10.30;99.90;;;;;;4903281;29;20111;-71
2023/05/26 03:14:37;;;;;;;17.70;3.58;;;10.30;99.90;;;;;;4904089;29;20063;-72
2023/05/26 03:17:03;;;;;;;14.68;3.90;;;10.40;99.90;;;;;;4904349;29;20041;-71
2023/05/26 03:19:29;;;;;;;20.58;3.97;;;10.30;99.90;;;;;;4904431;29;20099;-71
2023/05/26 03:21:55;;;;;;;29.13;4.68;;;10.30;99.90;;;;;;4904108;29;20467;-71
2023/05/26 03:24:21;;;;;;;25.05;3.60;;;10.30;99.90;;;;;;4904277;29;20040;-71
2023/05/26 03:26:47;;;;;;;24.48;3.83;;;10.40;99.90;;;;;;4903974;29;20543;-71
2023/05/26 03:29:12;;;;;;;23.67;4.25;;;10.40;99.90;;;;;;4903922;29;20049;-71
2023/05/26 03:31:38;;;;;;;21.52;3.83;;;10.40;99.90;;;;;;4902816;29;20092;-71
2023/05/26 03:34:04;;;;;;;24.25;3.80;;;10.40;99.90;;;;;;4904028;29;20048;-71
2023/05/26 03:36:29;;;;;;;31.52;4.28;;;10.40;99.90;;;;;;4903825;29;20116;-71
2023/05/26 03:38:55;;;;;;;23.50;3.45;;;10.40;99.90;;;;;;4903434;29;20048;-71
2023/05/26 03:41:22;;;;;;;19.13;3.70;;;10.40;99.90;;;;;;4903976;29;20044;-71
2023/05/26 03:43:48;;;;;;;27.90;4.80;;;10.30;99.90;;;;;;4903603;29;20037;-72
2023/05/26 03:46:13;;;;;;;24.77;3.35;;;10.30;99.90;;;;;;4903935;29;20044;-71
2023/05/26 03:48:39;;;;;;;24.80;4.55;;;10.30;99.90;;;;;;4902756;29;20319;-71
2023/05/26 03:51:05;;;;;;;23.77;3.75;;;10.40;99.90;;;;;;4903812;29;20112;-71
2023/05/26 03:53:30;;;;;;;17.88;3.83;;;10.30;99.90;;;;;;4903661;29;20364;-72
2023/05/26 03:55:56;;;;;;;23.95;4.28;;;10.30;99.90;;;;;;4903592;29;20067;-72
2023/05/26 03:58:22;;;;;;;24.70;4.50;;;10.30;99.90;;;;;;4903275;29;20124;-72
2023/05/26 04:00:48;;;;;;;29.00;4.50;;;10.30;99.90;;;;;;4903508;29;20128;-71
2023/05/26 04:03:14;;;;;;;26.80;3.60;;;10.40;99.90;;;;;;4903377;29;20040;-72
2023/05/26 04:05:40;;;;;;;23.17;3.80;;;10.40;99.90;;;;;;4903248;29;20055;-71
2023/05/26 04:08:05;;;;;;;22.38;4.07;;;10.40;99.90;;;;;;4903086;29;20044;-71
2023/05/26 04:10:31;;;;;;;24.70;3.53;;;10.50;99.90;;;;;;4902864;29;20040;-71
2023/05/26 04:12:57;;;;;;;25.10;3.80;;;10.50;99.90;;;;;;4901735;29;20052;-71
2023/05/26 04:15:23;;;;;;;23.80;4.93;;;10.50;99.90;;;;;;4903057;29;20052;-71
2023/05/26 04:17:48;;;;;;;18.77;3.70;;;10.50;99.90;;;;;;4902997;29;20442;-71
2023/05/26 04:20:15;;;;;;;28.75;3.90;;;10.60;99.90;;;;;;4903242;29;20053;-72
2023/05/26 04:22:41;;;;;;;22.27;4.10;;;10.60;99.90;;;;;;4902980;29;20074;-71
2023/05/26 04:25:07;;;;;;;21.27;3.85;;;10.70;99.90;;;;;;4902945;29;20040;-71
2023/05/26 04:27:35;;;;;;;22.02;3.42;;;10.80;99.90;;;;;;4902816;29;20055;-72
2023/05/26 04:30:02;;;;;;;23.75;3.65;;;10.80;99.90;;;;;;4903080;29;20159;-71
2023/05/26 04:32:28;;;;;;;19.98;3.85;;;10.70;99.90;;;;;;4902886;29;20048;-71
2023/05/26 04:34:55;;;;;;;29.25;5.00;;;10.80;99.90;;;;;;4902980;29;20108;-72
2023/05/26 04:37:21;;;;;;;19.98;3.50;;;11.00;99.90;;;;;;4902888;29;20036;-71
2023/05/26 04:39:47;;;;;;;30.90;4.50;;;11.00;99.90;;;;;;4902272;29;20048;-71
2023/05/26 04:42:12;;;;;;;26.58;4.28;;;11.10;99.90;;;;;;4902813;29;20040;-72
2023/05/26 04:44:40;;;;;;;21.45;4.43;;;11.20;99.90;;;;;;4902754;29;20036;-71
2023/05/26 04:47:08;;;;;;;26.17;3.97;;;11.20;99.90;;;;;;4902688;29;20052;-71
2023/05/26 04:49:38;;;;;;;19.58;3.97;;;11.30;99.90;;;;;;4902461;29;20104;-71
2023/05/26 04:52:04;;;;;;;27.50;4.15;;;11.40;99.90;;;;;;4898899;29;20178;-71
2023/05/26 04:54:30;;;;;;;27.58;4.88;;;11.50;99.90;;;;;;4900784;29;20052;-71
2023/05/26 04:56:56;;;;;;;26.50;3.60;;;11.50;99.90;;;;;;4901072;29;20352;-72
2023/05/26 04:59:23;;;;;;;25.20;4.53;;;11.50;99.90;;;;;;4902637;29;20041;-71
2023/05/26 05:01:49;;;;;;;36.22;5.22;;;11.60;99.90;;;;;;4902528;29;20048;-71
2023/05/26 05:04:16;;;;;;;29.58;4.38;;;11.70;99.90;;;;;;4902433;29;20040;-71
2023/05/26 05:06:41;;;;;;;24.10;4.63;;;11.80;99.90;;;;;;4902074;29;20056;-71
2023/05/26 05:09:08;;;;;;;28.98;4.38;;;11.80;99.90;;;;;;4900668;29;20053;-71
2023/05/26 05:11:33;;;;;;;29.60;4.85;;;11.80;99.90;;;;;;4901805;29;20112;-71
2023/05/26 05:13:59;;;;;;;35.35;5.10;;;11.90;99.90;;;;;;4902249;29;20056;-72
2023/05/26 05:16:25;;;;;;;26.90;4.35;;;11.90;99.90;;;;;;4902180;29;20047;-71
2023/05/26 05:18:50;;;;;;;22.60;4.20;;;12.10;99.90;;;;;;4902061;29;20044;-71
2023/05/26 05:21:16;;;;;;;31.08;4.90;;;12.00;99.90;;;;;;4902070;29;20350;-71
2023/05/26 05:23:42;;;;;;;24.50;4.05;;;12.10;99.90;;;;;;4901027;29;20041;-71
2023/05/26 05:26:07;;;;;;;28.67;3.83;;;12.20;99.90;;;;;;4901890;29;20330;-71
2023/05/26 05:28:33;;;;;;;27.20;4.20;;;12.30;99.90;;;;;;4901934;29;20079;-71
2023/05/26 05:30:59;;;;;;;27.95;4.57;;;12.50;99.90;;;;;;4901110;29;20052;-71
2023/05/26 05:33:25;;;;;;;23.27;5.00;;;12.50;99.90;;;;;;4901774;29;20084;-71
2023/05/26 05:35:51;;;;;;;36.78;4.50;;;12.50;99.90;;;;;;4901788;29;20047;-72
2023/05/26 05:38:17;;;;;;;28.25;5.07;;;12.70;99.90;;;;;;4901475;29;20037;-71
2023/05/26 05:40:42;;;;;;;39.03;4.95;;;12.80;99.90;;;;;;4901688;29;20051;-71
2023/05/26 05:43:08;;;;;;;27.02;5.35;;;12.60;99.90;;;;;;4901873;29;20082;-71
2023/05/26 05:45:34;;;;;;;33.53;5.00;;;12.70;99.90;;;;;;4901609;29;20120;-71
2023/05/26 05:47:59;;;;;;;28.80;4.30;;;12.70;99.90;;;;;;4901613;29;20044;-71
2023/05/26 05:50:25;;;;;;;23.08;4.10;;;13.00;99.90;;;;;;4901487;29;20168;-71
2023/05/26 05:52:52;;;;;;;33.30;4.35;;;13.10;99.90;;;;;;4900761;29;20045;-71
2023/05/26 05:55:18;;;;;;;21.17;3.88;;;13.00;99.90;;;;;;4901530;29;20048;-71
2023/05/26 05:57:44;;;;;;;19.83;4.03;;;12.90;99.90;;;;;;4901440;29;20044;-72
2023/05/26 06:00:11;;;;;;;28.83;4.65;;;13.00;99.90;;;;;;4901351;29;20041;-71
2023/05/26 06:02:36;;;;;;;25.35;4.03;;;12.80;99.90;;;;;;4901229;29;20044;-71
2023/05/26 06:05:03;;;;;;;29.35;4.63;;;12.60;99.90;;;;;;4901579;29;20052;-71
2023/05/26 06:07:28;;;;;;;32.85;5.03;;;12.80;99.90;;;;;;4901235;29;20045;-71
2023/05/26 06:09:55;;;;;;;26.77;4.43;;;12.90;99.90;;;;;;4900920;29;20323;-71
2023/05/26 06:12:20;;;;;;;31.27;3.90;;;13.00;99.90;;;;;;4901051;29;20056;-71
2023/05/26 06:14:46;;;;;;;35.95;4.05;;;13.10;99.90;;;;;;4901381;29;20132;-71
2023/05/26 06:17:12;;;;;;;27.15;4.22;;;13.00;99.90;;;;;;4901375;29;20044;-71
2023/05/26 06:19:37;;;;;;;27.52;4.45;;;12.90;99.90;;;;;;4901388;29;20055;-71
2023/05/26 06:22:03;;;;;;;25.83;3.97;;;13.10;99.90;;;;;;4901174;29;20100;-71
2023/05/26 06:24:29;;;;;;;29.88;4.53;;;13.20;99.90;;;;;;4900903;29;20048;-71
2023/05/26 06:27:00;;;;;;;24.65;4.18;;;13.60;99.90;;;;;;4901322;29;20044;-71
2023/05/26 06:29:28;;;;;;;23.67;3.88;;;13.80;99.90;;;;;;4901162;29;20051;-71
2023/05/26 06:31:54;;;;;;;32.10;4.55;;;13.90;99.90;;;;;;4901200;29;20051;-71
2023/05/26 06:34:20;;;;;;;30.70;4.20;;;14.10;99.90;;;;;;4902095;29;20048;-71
2023/05/26 06:36:45;;;;;;;25.23;4.13;;;13.80;99.90;;;;;;4904757;29;20040;-71
2023/05/26 06:39:11;;;;;;;28.63;4.35;;;14.00;99.90;;;;;;4904409;29;20045;-71
2023/05/26 06:41:37;;;;;;;18.48;3.17;;;14.20;99.90;;;;;;4905033;29;20057;-71
2023/05/26 06:44:02;;;;;;;21.08;3.58;;;14.10;99.90;;;;;;4904771;29;20049;-71
2023/05/26 06:46:28;;;;;;;25.25;3.72;;;14.00;99.90;;;;;;4904841;29;20041;-71
2023/05/26 06:48:54;;;;;;;28.83;3.78;;;13.90;99.90;;;;;;4904894;29;20380;-71
2023/05/26 06:51:19;;;;;;;19.17;3.67;;;14.00;99.90;;;;;;4904605;29;20052;-73
2023/05/26 06:53:45;;;;;;;19.30;3.53;;;14.30;99.90;;;;;;4903622;29;20040;-69
2023/05/26 06:56:11;;;;;;;23.25;3.88;;;14.30;99.90;;;;;;4904524;29;20044;-70
2023/05/26 06:58:36;;;;;;;22.80;3.30;;;14.10;99.90;;;;;;4904566;29;20049;-70
2023/05/26 07:01:03;;;;;;;25.52;3.88;;;14.20;99.90;;;;;;4904700;29;20045;-70
2023/05/26 07:03:30;;;;;;;21.33;3.72;;;14.20;99.90;;;;;;4903690;29;20331;-69
2023/05/26 07:05:56;;;;;;;21.42;3.30;;;14.30;99.90;;;;;;4904438;29;20087;-70
2023/05/26 07:08:22;;;;;;;19.58;3.22;;;14.30;99.90;;;;;;4903972;29;20053;-70
2023/05/26 07:10:48;;;;;;;17.10;3.08;;;14.40;99.90;;;;;;4903603;29;20052;-70
2023/05/26 07:13:15;;;;;;;19.70;2.88;;;14.50;99.90;;;;;;4904550;29;20060;-70
2023/05/26 07:15:41;;;;;;;18.98;3.17;;;14.30;99.90;;;;;;4903074;29;20056;-69
2023/05/26 07:18:07;;;;;;;20.40;3.17;;;14.30;99.90;;;;;;4904129;29;20100;-69
2023/05/26 07:20:33;;;;;;;22.35;3.47;;;14.20;99.90;;;;;;4903093;29;20040;-68
2023/05/26 07:22:59;;;;;;;15.07;3.30;;;14.10;99.90;;;;;;4903055;29;20449;-70
2023/05/26 07:25:25;;;;;;;21.45;2.90;;;14.20;99.90;;;;;;4904055;29;20045;-70
2023/05/26 07:27:51;;;;;;;17.58;2.95;;;14.40;99.90;;;;;;4904136;29;20131;-69
2023/05/26 07:30:18;;;;;;;28.17;4.70;;;14.50;99.90;;;;;;4903923;29;20127;-69
2023/05/26 07:32:44;;;;;;;16.30;2.65;;;14.50;99.90;;;;;;4904161;29;20052;-69
2023/05/26 07:35:09;;;;;;;14.93;3.17;;;14.30;99.90;;;;;;4903809;29;20049;-69
2023/05/26 07:37:35;;;;;;;16.13;3.22;;;14.40;99.90;;;;;;4903619;29;20041;-70
2023/05/26 07:40:03;;;;;;;18.00;2.65;;;14.50;99.90;;;;;;4902874;29;20047;-69
2023/05/26 07:42:29;;;;;;;16.38;2.53;;;14.60;99.90;;;;;;4902946;29;20055;-69
2023/05/26 07:44:55;;;;;;;19.02;3.03;;;14.70;99.90;;;;;;4902902;29;20339;-69
2023/05/26 07:47:21;;;;;;;12.50;2.80;;;14.90;99.90;;;;;;4902993;29;20053;-69
2023/05/26 07:49:47;;;;;;;17.88;2.80;;;14.80;99.90;;;;;;4902607;29;20045;-68
2023/05/26 07:52:13;;;;;;;23.30;3.20;;;14.90;99.90;;;;;;4903488;29;20131;-69
2023/05/26 07:54:38;;;;;;;18.42;3.17;;;15.00;99.90;;;;;;4902592;29;20052;-68
2023/05/26 07:57:05;;;;;;;13.38;2.70;;;15.10;99.90;;;;;;4903451;29;20049;-68
2023/05/26 07:59:30;;;;;;;18.00;3.00;;;15.10;99.90;;;;;;4903419;29;20037;-68
2023/05/26 08:01:56;;;;;;;16.05;2.85;;;14.90;99.90;;;;;;4903487;29;20100;-69
2023/05/26 08:04:22;;;;;;;16.27;3.28;;;15.00;99.90;;;;;;4902480;29;20367;-68
2023/05/26 08:06:48;;;;;;;16.38;2.83;;;15.20;99.90;;;;;;4903350;29;20052;-68
2023/05/26 08:09:13;;;;;;;21.75;3.30;;;15.30;99.90;;;;;;4886248;29;20044;-68
2023/05/26 08:11:39;;;;;;;24.50;2.47;;;15.40;99.90;;;;;;4900376;29;20081;-68
2023/05/26 08:14:05;;;;;;;21.58;3.67;;;15.30;99.90;;;;;;4900165;29;20067;-69
2023/05/26 08:16:30;;;;;;;17.25;2.92;;;15.60;99.90;;;;;;4889035;29;20041;-71
2023/05/26 08:18:56;;;;;;;15.13;2.60;;;15.70;99.90;;;;;;4890697;29;20454;-76
2023/05/26 08:21:22;;;;;;;16.40;2.70;;;15.40;99.90;;;;;;4882593;29;20045;-76
2023/05/26 08:23:47;;;;;;;17.10;2.80;;;15.00;99.90;;;;;;4883895;29;20052;-75
2023/05/26 08:26:13;;;;;;;8.32;2.03;;;15.00;99.90;;;;;;4884340;29;20465;-76
2023/05/26 08:28:41;;;;;;;17.77;2.30;;;15.10;99.90;;;;;;4867893;29;20056;-75
2023/05/26 08:31:06;;;;;;;17.98;3.08;;;15.30;99.90;;;;;;4884254;29;20036;-77
2023/05/26 08:33:32;;;;;;;20.98;3.17;;;15.40;99.90;;;;;;4884512;29;20395;-77
2023/05/26 08:35:58;;;;;;;20.33;3.40;;;15.40;99.90;;;;;;4883248;29;20052;-76
2023/05/26 08:38:24;;;;;;;24.67;3.55;;;15.20;99.90;;;;;;4882866;29;20108;-76
2023/05/26 08:40:53;;;;;;;18.55;2.72;;;15.20;99.90;;;;;;4852389;29;20041;-77
2023/05/26 08:43:25;;;;;;;14.82;3.05;;;15.20;99.90;;;;;;4882914;29;20080;-75
2023/05/26 08:45:51;;;;;;;18.33;3.50;;;15.40;99.90;;;;;;4883823;29;20049;-74
2023/05/26 08:48:18;;;;;;;18.27;3.45;;;15.40;99.90;;;;;;4885189;29;20494;-76
2023/05/26 08:50:49;;;;;;;15.77;2.80;;;15.20;99.90;;;;;;4868114;29;20049;-85
2023/05/26 08:53:15;;;;;;;26.00;3.13;;;15.40;99.90;;;;;;4883336;29;20049;-70
2023/05/26 08:55:44;;;;;;;14.02;2.90;;;15.40;99.90;;;;;;4883754;29;20044;-72
2023/05/26 08:58:10;;;;;;;18.50;3.00;;;15.80;99.90;;;;;;4883765;29;20145;-72
2023/05/26 09:00:39;;;;;;;14.80;2.90;;;16.00;99.90;;;;;;4883837;29;20189;-69
2023/05/26 09:03:05;;;;;;;13.50;3.03;;;16.30;99.90;;;;;;4883491;29;20048;-70
2023/05/26 09:05:31;;;;;;;12.88;3.25;;;16.50;99.90;;;;;;4882709;29;20053;-69
2023/05/26 09:07:56;;;;;;;22.85;3.35;;;16.60;99.90;;;;;;4883804;29;20051;-70
2023/05/26 09:10:28;;;;;;;17.13;3.03;;;16.70;99.90;;;;;;4883139;29;20113;-69
2023/05/26 09:13:13;;;;;;;16.55;2.80;;;16.60;99.90;;;;;;4883377;29;20355;-70
2023/05/26 09:15:39;;;;;;;18.75;3.28;;;16.60;99.90;;;;;;4867293;29;20057;-70
2023/05/26 09:18:07;;;;;;;16.75;3.20;;;16.70;99.90;;;;;;4882271;29;20040;-69
2023/05/26 09:20:45;;;;;;;15.68;3.40;;;16.60;99.90;;;;;;4882351;29;20052;-70
2023/05/26 09:23:11;;;;;;;16.38;2.95;;;16.80;99.90;;;;;;4883537;29;20041;-69
2023/05/26 09:25:40;;;;;;;15.45;2.78;;;16.70;99.90;;;;;;4866728;29;20041;-70
2023/05/26 09:28:08;;;;;;;14.35;2.65;;;16.60;99.90;;;;;;4882052;29;20438;-70
2023/05/26 09:30:38;;;;;;;17.38;3.90;;;16.80;99.90;;;;;;4883178;29;20052;-70
2023/05/26 09:33:13;;;;;;;19.25;2.70;;;17.00;99.90;;;;;;4883586;29;20060;-69
2023/05/26 09:35:45;;;;;;;14.63;2.80;;;17.10;99.90;;;;;;4883550;29;20141;-69
2023/05/26 09:38:14;;;;;;;14.57;2.80;;;17.30;99.90;;;;;;4882862;29;20040;-70
2023/05/26 09:40:41;;;;;;;15.80;2.50;;;17.40;99.90;;;;;;4883034;29;20064;-70
2023/05/26 09:43:07;;;;;;;21.67;3.15;;;17.50;99.90;;;;;;4883188;29;20041;-70
2023/05/26 09:45:35;;;;;;;16.88;3.22;;;17.70;99.90;;;;;;4883129;29;20100;-70
2023/05/26 09:48:05;;;;;;;16.85;3.30;;;17.50;99.90;;;;;;4882125;29;20052;-75
2023/05/26 09:50:35;;;;;;;13.55;2.75;;;17.10;99.90;;;;;;4882744;29;20044;-67
2023/05/26 09:53:02;;;;;;;17.40;2.83;;;17.30;99.90;;;;;;4882917;29;20048;-70
2023/05/26 09:55:31;;;;;;;19.15;3.33;;;17.60;99.90;;;;;;4882952;29;20089;-68
2023/05/26 09:58:06;;;;;;;13.80;2.45;;;17.50;99.90;;;;;;4882644;29;20045;-72
2023/05/26 10:00:36;;;;;;;16.73;2.88;;;17.70;99.90;;;;;;4882765;29;20120;-74
2023/05/26 10:03:05;;;;;;;13.38;2.80;;;17.40;99.90;;;;;;4866372;29;20133;-77
2023/05/26 10:05:38;;;;;;;16.05;3.05;;;17.30;99.90;;;;;;4882472;29;20128;-78
2023/05/26 10:08:05;;;;;;;20.85;3.25;;;17.40;99.90;;;;;;4882243;29;20052;-78
2023/05/26 10:10:33;;;;;;;16.67;2.75;;;17.40;99.90;;;;;;4881280;29;20396;-78
2023/05/26 10:12:59;;;;;;;16.95;3.30;;;17.50;99.90;;;;;;4883015;29;20105;-76
2023/05/26 10:15:25;;;;;;;12.90;2.67;;;17.60;99.90;;;;;;4882044;29;20093;-77
2023/05/26 10:17:52;;;;;;;20.27;3.80;;;17.80;99.90;;;;;;4882050;29;20044;-75
2023/05/26 10:20:19;;;;;;;14.50;2.80;;;17.90;99.90;;;;;;4882722;29;20458;-75
2023/05/26 10:23:04;;;;;;;16.40;3.00;;;18.10;99.90;;;;;;4881818;29;20049;-75
2023/05/26 10:25:45;;;;;;;17.85;3.13;;;17.90;99.90;;;;;;4883019;29;20040;-78
2023/05/26 10:28:24;;;;;;;16.42;2.80;;;17.50;99.90;;;;;;4882177;29;20057;-78
2023/05/26 10:31:00;;;;;;;10.80;3.35;;;17.70;99.90;;;;;;4882032;29;20128;-72
2023/05/26 10:33:46;;;;;;;22.13;4.25;;;17.90;99.90;;;;;;4882540;29;20041;-72
2023/05/26 10:36:17;;;;;;;20.27;3.22;;;18.20;99.90;;;;;;4882900;29;20045;-73
2023/05/26 10:38:47;;;;;;;16.10;3.10;;;18.10;99.90;;;;;;4881903;29;20096;-72
2023/05/26 10:41:36;;;;;;;17.35;3.10;;;18.30;99.90;;;;;;4882337;29;20435;-73
2023/05/26 10:44:03;;;;;;;15.05;2.70;;;17.90;99.90;;;;;;4882315;29;20051;-74
2023/05/26 10:47:12;;;;;;;14.48;3.47;;;17.70;99.90;;;;;;4882389;29;20100;-75
2023/05/26 10:49:38;;;;;;;17.92;3.35;;;17.90;99.90;;;;;;4880612;29;20057;-74
2023/05/26 10:52:14;;;;;;;17.08;3.08;;;18.10;99.90;;;;;;4881640;29;20044;-74
2023/05/26 10:54:42;;;;;;;18.92;3.38;;;18.20;99.90;;;;;;4882435;29;20052;-74
2023/05/26 10:57:31;;;;;;;21.38;3.30;;;18.30;99.90;;;;;;4882359;29;20051;-75
2023/05/26 10:59:58;;;;;;;11.98;2.70;;;18.50;99.90;;;;;;4881572;29;20404;-69
2023/05/26 11:02:24;;;;;;;17.05;2.95;;;18.60;99.90;;;;;;4882472;29;20052;-71
2023/05/26 11:04:50;;;;;;;15.23;3.03;;;18.60;99.90;;;;;;4881330;29;20041;-71
2023/05/26 11:07:27;;;;;;;11.00;3.03;;;18.30;99.90;;;;;;4882248;29;20049;-72
2023/05/26 11:10:05;;;;;;;16.38;2.70;;;18.50;99.90;;;;;;4881134;29;20057;-74
2023/05/26 11:12:48;;;;;;;17.77;3.40;;;18.40;99.90;;;;;;4881831;29;20060;-74
2023/05/26 11:15:28;;;;;;;13.88;2.83;;;18.40;99.90;;;;;;4882290;29;20455;-74
2023/05/26 11:17:55;;;;;;;15.25;3.20;;;18.50;99.90;;;;;;4881074;29;20053;-75
2023/05/26 11:20:23;;;;;;;18.58;3.10;;;18.60;99.90;;;;;;4882258;29;20055;-74
2023/05/26 11:22:51;;;;;;;17.13;3.65;;;18.50;99.90;;;;;;4883965;29;20049;-74
2023/05/26 11:25:17;;;;;;;21.48;3.40;;;18.60;99.90;;;;;;4884283;29;20097;-75
2023/05/26 11:27:47;;;;;;;19.42;3.30;;;18.70;99.90;;;;;;4884814;29;20049;-78
2023/05/26 11:30:13;;;;;;;14.02;2.72;;;18.30;99.90;;;;;;4884832;29;20454;-79
2023/05/26 11:32:47;;;;;;;16.33;3.25;;;17.90;99.90;;;;;;4854068;29;20044;-85
2023/05/26 11:35:22;;;;;;;16.67;3.10;;;18.20;99.90;;;;;;4884561;29;20049;-83
2023/05/26 11:37:48;;;;;;;16.92;3.40;;;18.60;99.90;;;;;;4869017;29;20037;-85
2023/05/26 11:40:14;;;;;;;14.95;3.25;;;18.90;99.90;;;;;;4853345;29;20041;-77
2023/05/26 11:42:43;;;;;;;18.15;3.83;;;19.20;99.90;;;;;;4868995;29;20089;-82
2023/05/26 11:45:10;;;;;;;11.30;3.20;;;19.20;99.90;;;;;;4884570;29;20037;-81
2023/05/26 11:47:36;;;;;;;14.48;3.42;;;19.10;99.90;;;;;;4868911;29;20060;-75
2023/05/26 11:50:09;;;;;;;14.23;3.20;;;18.80;99.90;;;;;;4884172;29;20052;-76
2023/05/26 11:52:40;;;;;;;24.98;3.83;;;19.10;99.90;;;;;;4884907;29;20456;-76
2023/05/26 11:55:06;;;;;;;13.90;3.38;;;19.50;99.90;;;;;;4884922;29;20069;-76
2023/05/26 11:57:34;;;;;;;13.43;3.05;;;19.30;99.90;;;;;;4883985;29;20331;-76
2023/05/26 12:00:05;;;;;;;17.58;3.47;;;19.40;99.90;;;;;;4884084;29;20120;-76
2023/05/26 12:02:31;;;;;;;15.20;3.42;;;20.00;99.90;;;;;;4883630;29;20391;-76
2023/05/26 12:04:57;;;;;;;19.50;3.47;;;20.40;99.90;;;;;;4868213;29;20119;-76
2023/05/26 12:07:30;;;;;;;16.42;3.15;;;20.00;99.90;;;;;;4883970;29;20056;-75
2023/05/26 12:10:07;;;;;;;16.55;3.53;;;19.60;99.90;;;;;;4883342;29;20431;-75
2023/05/26 12:12:47;;;;;;;16.35;3.20;;;20.00;99.90;;;;;;4884105;29;20192;-75
2023/05/26 12:15:18;;;;;;;17.13;3.15;;;20.00;99.90;;;;;;4868439;29;20059;-75
2023/05/26 12:17:44;;;;;;;19.33;3.47;;;20.10;99.90;;;;;;4867872;29;20116;-78
2023/05/26 12:20:14;;;;;;;26.45;6.05;;;19.80;99.90;;;;;;4852722;29;20085;-76
2023/05/26 12:22:41;;;;;;;20.90;5.70;;;19.80;99.90;;;;;;4883734;29;20339;-76
2023/05/26 12:25:06;;;;;;;15.80;3.72;;;19.90;99.90;;;;;;4884267;29;20401;-71
2023/05/26 12:27:36;;;;;;;15.95;2.92;;;20.00;99.90;;;;;;4884193;29;20125;-71
2023/05/26 12:30:24;;;;;;;19.60;4.32;;;19.80;99.90;;;;;;4884101;29;20048;-71
2023/05/26 12:32:50;;;;;;;16.27;3.60;;;20.10;99.90;;;;;;4884172;29;20045;-71
2023/05/26 12:35:16;;;;;;;17.50;3.38;;;20.60;99.90;;;;;;4883234;29;20338;-71
2023/05/26 12:37:42;;;;;;;16.38;3.05;;;19.90;99.90;;;;;;4884187;29;20045;-71